Time;durP1;ratioP1;P1;durP2;ratioP2;P2;SDS_P1;SDS_P2;PMS_P1;PMS_P2;Temp;Humidity;BMP_temperature;BMP_pressure;BME280_temperature;BME280_humidity;BME280_pressure;Samples;Min_cycle;Max_cycle;Signal;HPM_P1;HPM_P2
2024/01/15 00:01:49;;;;;;;31.90;10.67;;;1.20;99.90;;;;;;5012975;28;20083;-55
2024/01/15 00:04:15;;;;;;;26.13;9.07;;;1.10;99.90;;;;;;5013241;28;20434;-52
2024/01/15 00:06:41;;;;;;;33.00;11.13;;;1.10;99.90;;;;;;5013108;28;20029;-53
2024/01/15 00:09:06;;;;;;;29.60;10.50;;;1.10;99.90;;;;;;5012902;28;20033;-54
2024/01/15 00:11:32;;;;;;;30.77;9.50;;;1.10;99.90;;;;;;5013161;28;20054;-52
2024/01/15 00:13:58;;;;;;;26.57;9.73;;;1.10;99.90;;;;;;5013039;28;20026;-52
2024/01/15 00:16:24;;;;;;;28.70;8.90;;;1.10;99.90;;;;;;5013131;28;20033;-54
2024/01/15 00:18:49;;;;;;;26.10;9.27;;;1.10;99.90;;;;;;5012796;28;20063;-55
2024/01/15 00:21:15;;;;;;;31.50;10.00;;;1.10;99.90;;;;;;5012750;28;20038;-54
2024/01/15 00:23:46;;;;;;;24.33;7.97;;;1.10;99.90;;;;;;5012848;28;20029;-55
2024/01/15 00:26:12;;;;;;;34.40;9.67;;;1.10;99.90;;;;;;5012864;28;20049;-55
2024/01/15 00:28:38;;;;;;;29.67;10.00;;;1.10;99.90;;;;;;5012982;28;20060;-55
2024/01/15 00:31:06;;;;;;;23.83;9.10;;;1.10;99.90;;;;;;5012790;28;20042;-54
2024/01/15 00:33:32;;;;;;;27.23;9.13;;;1.20;99.90;;;;;;5012799;28;20065;-54
2024/01/15 00:35:58;;;;;;;25.97;8.80;;;1.20;99.90;;;;;;5011569;28;20037;-54
2024/01/15 00:38:24;;;;;;;27.47;9.50;;;1.30;99.90;;;;;;5012929;28;20029;-54
2024/01/15 00:40:50;;;;;;;24.63;8.60;;;1.20;99.90;;;;;;5011620;28;20100;-54
2024/01/15 00:43:18;;;;;;;26.40;8.97;;;1.20;99.90;;;;;;5012603;28;20034;-54
2024/01/15 00:45:43;;;;;;;21.93;8.53;;;1.30;99.90;;;;;;5012764;28;20398;-54
2024/01/15 00:48:09;;;;;;;22.93;8.53;;;1.20;99.90;;;;;;5011248;28;20048;-55
2024/01/15 00:50:35;;;;;;;26.37;9.83;;;1.30;99.90;;;;;;5012236;28;20030;-52
2024/01/15 00:53:00;;;;;;;30.00;9.60;;;1.30;99.90;;;;;;4994871;28;20034;-55
2024/01/15 00:55:28;;;;;;;24.37;8.73;;;1.30;99.90;;;;;;5012492;28;20037;-52
2024/01/15 00:57:54;;;;;;;24.70;10.07;;;1.30;99.90;;;;;;5012101;28;20038;-54
2024/01/15 01:00:19;;;;;;;25.07;9.30;;;1.30;99.90;;;;;;5012209;28;20029;-54
2024/01/15 01:02:45;;;;;;;26.03;8.53;;;1.30;99.90;;;;;;5011245;28;20107;-54
2024/01/15 01:05:11;;;;;;;27.13;8.83;;;1.30;99.90;;;;;;5012343;28;20072;-54
2024/01/15 01:07:36;;;;;;;26.10;9.50;;;1.30;99.90;;;;;;5012277;28;20042;-52
2024/01/15 01:10:02;;;;;;;22.60;8.40;;;1.30;99.90;;;;;;5011834;28;20084;-54
2024/01/15 01:12:27;;;;;;;25.10;8.70;;;1.40;99.90;;;;;;5012367;28;20026;-54
2024/01/15 01:14:53;;;;;;;22.90;9.13;;;1.40;99.90;;;;;;5012096;28;20113;-55
2024/01/15 01:17:19;;;;;;;25.37;9.23;;;1.50;99.90;;;;;;5012131;28;20045;-55
2024/01/15 01:19:44;;;;;;;27.67;9.27;;;1.40;99.90;;;;;;5011948;28;20026;-54
2024/01/15 01:22:10;;;;;;;26.73;9.70;;;1.30;99.90;;;;;;5012030;28;20394;-54
2024/01/15 01:24:35;;;;;;;25.60;9.00;;;1.40;99.90;;;;;;5012087;28;20029;-55
2024/01/15 01:27:01;;;;;;;29.07;10.53;;;1.40;99.90;;;;;;5012124;28;20113;-55
2024/01/15 01:29:26;;;;;;;23.97;9.27;;;1.40;99.90;;;;;;5012078;28;20360;-55
2024/01/15 01:31:52;;;;;;;26.20;8.40;;;1.40;99.90;;;;;;5010587;28;20142;-53
2024/01/15 01:34:18;;;;;;;20.87;7.90;;;1.40;99.90;;;;;;5012026;28;20034;-55
2024/01/15 01:36:43;;;;;;;25.87;9.50;;;1.40;99.90;;;;;;5012046;28;20053;-53
2024/01/15 01:39:09;;;;;;;27.53;9.33;;;1.50;99.90;;;;;;5011978;28;20505;-52
2024/01/15 01:41:35;;;;;;;27.30;9.57;;;1.40;99.90;;;;;;5011823;28;20117;-53
2024/01/15 01:44:01;;;;;;;24.90;9.77;;;1.50;99.90;;;;;;5011864;28;20050;-52
2024/01/15 01:46:28;;;;;;;25.43;9.90;;;1.40;99.90;;;;;;5011965;28;20101;-54
2024/01/15 01:48:55;;;;;;;22.83;9.00;;;1.40;99.90;;;;;;5011755;28;20114;-53
2024/01/15 01:51:24;;;;;;;23.57;8.37;;;1.40;99.90;;;;;;5011604;28;20112;-53
2024/01/15 01:53:50;;;;;;;24.83;8.33;;;1.40;99.90;;;;;;5011756;28;20169;-53
2024/01/15 01:56:17;;;;;;;25.47;8.33;;;1.40;99.90;;;;;;5011783;28;20034;-54
2024/01/15 01:58:44;;;;;;;26.53;8.67;;;1.40;99.90;;;;;;5011602;28;20041;-55
2024/01/15 02:01:11;;;;;;;22.97;8.83;;;1.40;99.90;;;;;;5011556;28;20032;-53
2024/01/15 02:03:38;;;;;;;21.73;8.27;;;1.40;99.90;;;;;;5011679;28;20073;-53
2024/01/15 02:06:04;;;;;;;21.83;8.63;;;1.50;99.90;;;;;;5011686;28;20026;-54
2024/01/15 02:08:30;;;;;;;21.93;8.20;;;1.50;99.90;;;;;;5011647;28;20083;-53
2024/01/15 02:10:56;;;;;;;18.50;7.57;;;1.50;99.90;;;;;;5012998;28;20453;-54
2024/01/15 02:13:21;;;;;;;25.17;8.33;;;1.60;99.90;;;;;;5015267;28;20034;-50
2024/01/15 02:15:47;;;;;;;19.77;7.43;;;1.50;99.90;;;;;;5014101;28;20041;-54
2024/01/15 02:18:13;;;;;;;21.20;7.60;;;1.50;99.90;;;;;;5015251;28;20080;-49
2024/01/15 02:20:38;;;;;;;23.57;8.13;;;1.50;99.90;;;;;;5014972;28;20052;-54
2024/01/15 02:23:12;;;;;;;23.93;7.90;;;1.60;99.90;;;;;;5015221;28;20038;-53
2024/01/15 02:25:46;;;;;;;16.97;7.03;;;1.50;99.90;;;;;;5015019;28;20022;-53
2024/01/15 02:28:17;;;;;;;24.10;7.70;;;1.50;99.90;;;;;;5014995;28;20129;-51
2024/01/15 02:30:43;;;;;;;20.07;6.70;;;1.50;99.90;;;;;;5014616;28;20059;-51
2024/01/15 02:33:10;;;;;;;23.43;7.33;;;1.50;99.90;;;;;;5014851;28;20372;-49
2024/01/15 02:35:36;;;;;;;25.60;7.40;;;1.50;99.90;;;;;;5014869;28;20400;-49
2024/01/15 02:38:03;;;;;;;22.10;7.23;;;1.60;99.90;;;;;;5014721;28;20029;-49
2024/01/15 02:40:29;;;;;;;19.67;6.77;;;1.60;99.90;;;;;;5014490;28;20034;-51
2024/01/15 02:42:54;;;;;;;22.60;7.30;;;1.50;99.90;;;;;;5014531;28;20025;-49
2024/01/15 02:45:22;;;;;;;16.03;6.63;;;1.60;99.90;;;;;;5014753;28;20108;-50
2024/01/15 02:47:47;;;;;;;16.90;6.20;;;1.60;99.90;;;;;;5014517;28;20114;-49
2024/01/15 02:50:13;;;;;;;17.70;7.63;;;1.60;99.90;;;;;;5014376;28;20037;-51
2024/01/15 02:52:39;;;;;;;22.60;7.53;;;1.60;99.90;;;;;;5014495;28;20068;-50
2024/01/15 02:55:05;;;;;;;17.90;6.67;;;1.50;99.90;;;;;;5014467;28;20069;-50
2024/01/15 02:57:31;;;;;;;20.50;6.57;;;1.50;99.90;;;;;;5013103;28;20037;-50
2024/01/15 02:59:56;;;;;;;17.30;5.73;;;1.60;99.90;;;;;;5014181;28;20076;-49
2024/01/15 03:02:22;;;;;;;15.57;5.60;;;1.60;99.90;;;;;;5014271;28;20426;-51
2024/01/15 03:04:48;;;;;;;16.80;5.83;;;1.70;99.90;;;;;;5014270;28;20022;-50
2024/01/15 03:07:13;;;;;;;15.73;5.77;;;1.60;99.90;;;;;;5014366;28;20037;-50
2024/01/15 03:09:39;;;;;;;15.27;5.23;;;1.70;99.90;;;;;;5014010;28;20548;-49
2024/01/15 03:12:05;;;;;;;21.63;6.53;;;1.60;99.90;;;;;;5013919;28;20026;-49
2024/01/15 03:14:31;;;;;;;11.83;4.40;;;1.60;99.90;;;;;;5014224;28;20091;-50
2024/01/15 03:16:56;;;;;;;17.67;5.43;;;1.60;99.90;;;;;;5014067;28;20490;-53
2024/01/15 03:19:22;;;;;;;14.07;5.27;;;1.60;99.90;;;;;;5013887;28;20030;-53
2024/01/15 03:21:48;;;;;;;13.00;4.87;;;1.60;99.90;;;;;;5013718;28;20025;-49
2024/01/15 03:24:13;;;;;;;13.50;5.10;;;1.50;99.90;;;;;;5013925;28;20238;-54
2024/01/15 03:26:39;;;;;;;13.40;5.43;;;1.60;99.90;;;;;;5012630;28;20073;-50
2024/01/15 03:29:06;;;;;;;12.47;5.23;;;1.60;99.90;;;;;;5013733;28;20452;-53
2024/01/15 03:31:31;;;;;;;17.67;6.07;;;1.60;99.90;;;;;;5013654;28;20565;-50
2024/01/15 03:33:57;;;;;;;16.17;4.80;;;1.60;99.90;;;;;;5013632;28;20037;-49
2024/01/15 03:36:22;;;;;;;14.37;5.23;;;1.60;99.90;;;;;;5013787;28;20034;-50
2024/01/15 03:38:48;;;;;;;13.30;5.17;;;1.60;99.90;;;;;;5013462;28;20025;-51
2024/01/15 03:41:14;;;;;;;16.67;7.00;;;1.60;99.90;;;;;;5013459;28;20112;-53
2024/01/15 03:43:39;;;;;;;16.43;5.40;;;1.60;99.90;;;;;;5013491;28;20441;-49
2024/01/15 03:46:05;;;;;;;13.73;4.80;;;1.60;99.90;;;;;;5013744;28;20045;-50
2024/01/15 03:48:31;;;;;;;14.70;4.90;;;1.70;99.90;;;;;;5013471;28;20479;-51
2024/01/15 03:50:57;;;;;;;14.83;6.37;;;1.60;99.90;;;;;;5013193;28;20475;-50
2024/01/15 03:53:22;;;;;;;14.67;6.60;;;1.60;99.90;;;;;;5013275;28;20025;-50
2024/01/15 03:55:49;;;;;;;16.67;7.17;;;1.60;99.90;;;;;;5013325;28;20088;-53
2024/01/15 03:58:17;;;;;;;14.90;6.30;;;1.60;99.90;;;;;;5011997;28;20064;-48
2024/01/15 04:00:43;;;;;;;16.37;6.43;;;1.60;99.90;;;;;;5013038;28;20029;-49
2024/01/15 04:03:09;;;;;;;21.67;6.57;;;1.60;99.90;;;;;;5013133;28;20113;-49
2024/01/15 04:05:34;;;;;;;16.40;6.60;;;1.60;99.90;;;;;;5013157;28;20033;-50
2024/01/15 04:08:00;;;;;;;13.60;6.30;;;1.60;99.90;;;;;;5013076;28;20084;-49
2024/01/15 04:10:26;;;;;;;14.93;6.60;;;1.60;99.90;;;;;;5012642;28;20042;-49
2024/01/15 04:12:52;;;;;;;12.80;5.50;;;1.60;99.90;;;;;;5012945;28;20025;-49
2024/01/15 04:15:18;;;;;;;14.40;6.80;;;1.60;99.90;;;;;;5013077;28;20599;-50
2024/01/15 04:17:43;;;;;;;15.63;6.70;;;1.60;99.90;;;;;;5012857;28;20034;-49
2024/01/15 04:20:10;;;;;;;14.60;6.60;;;1.60;99.90;;;;;;5011445;28;20414;-49
2024/01/15 04:22:37;;;;;;;17.30;5.97;;;1.50;99.90;;;;;;5012768;28;20394;-48
2024/01/15 04:25:03;;;;;;;16.67;5.77;;;1.60;99.90;;;;;;5012685;28;20108;-48
2024/01/15 04:27:29;;;;;;;15.17;6.47;;;1.50;99.90;;;;;;5012859;28;20292;-50
2024/01/15 04:29:54;;;;;;;14.13;5.70;;;1.50;99.90;;;;;;5012524;28;20077;-52
2024/01/15 04:32:20;;;;;;;16.23;6.23;;;1.50;99.90;;;;;;5012713;28;20040;-50
2024/01/15 04:34:46;;;;;;;13.13;5.47;;;1.40;99.90;;;;;;5012272;28;20438;-50
2024/01/15 04:37:11;;;;;;;14.07;5.07;;;1.40;99.90;;;;;;5011605;28;20068;-51
2024/01/15 04:39:37;;;;;;;15.30;5.10;;;1.40;99.90;;;;;;5012451;28;20026;-50
2024/01/15 04:42:03;;;;;;;13.40;5.60;;;1.40;99.90;;;;;;5012451;28;20051;-49
2024/01/15 04:44:29;;;;;;;12.63;5.10;;;1.30;99.90;;;;;;5012770;28;20034;-53
2024/01/15 04:46:54;;;;;;;11.50;5.57;;;1.30;99.90;;;;;;5012620;28;20172;-54
2024/01/15 04:49:20;;;;;;;12.80;5.03;;;1.40;99.90;;;;;;5012393;28;20034;-52
2024/01/15 04:51:45;;;;;;;10.77;5.77;;;1.40;99.90;;;;;;5012146;28;20467;-52
2024/01/15 04:54:11;;;;;;;17.43;5.83;;;1.40;99.90;;;;;;5012375;28;20053;-49
2024/01/15 04:56:37;;;;;;;13.00;5.30;;;1.40;99.90;;;;;;5012373;28;20107;-49
2024/01/15 04:59:02;;;;;;;11.73;5.50;;;1.50;99.90;;;;;;5012227;28;20502;-49
2024/01/15 05:01:32;;;;;;;13.03;5.87;;;1.50;99.90;;;;;;5012150;28;20066;-50
2024/01/15 05:03:58;;;;;;;;;;;1.50;99.90;;;;;;5012895;28;20038;-52
2024/01/15 05:06:23;;;;;;;9.83;5.10;;;1.50;99.90;;;;;;5012615;28;19931;-51
2024/01/15 05:08:49;;;;;;;17.20;5.73;;;1.50;99.90;;;;;;5011904;28;20018;-54
2024/01/15 05:11:14;;;;;;;16.93;5.90;;;1.40;99.90;;;;;;5012096;28;20041;-48
2024/01/15 05:13:40;;;;;;;12.37;5.13;;;1.40;99.90;;;;;;5012092;28;20025;-52
2024/01/15 05:16:06;;;;;;;15.40;5.17;;;1.50;99.90;;;;;;5012127;28;20032;-49
2024/01/15 05:18:31;;;;;;;16.47;5.37;;;1.40;99.90;;;;;;5012141;28;20080;-53
2024/01/15 05:20:57;;;;;;;12.57;4.23;;;1.50;99.90;;;;;;5011953;28;20034;-51
2024/01/15 05:23:23;;;;;;;13.60;4.90;;;1.40;99.90;;;;;;5011912;28;20033;-50
2024/01/15 05:25:48;;;;;;;9.57;4.60;;;1.50;99.90;;;;;;5010921;28;20084;-54
2024/01/15 05:28:14;;;;;;;15.03;5.40;;;1.50;99.90;;;;;;5011959;28;20313;-52
2024/01/15 05:30:40;;;;;;;10.90;4.93;;;1.40;99.90;;;;;;5011875;28;20025;-49
2024/01/15 05:33:07;;;;;;;15.00;5.73;;;1.40;99.90;;;;;;5011873;28;20037;-48
2024/01/15 05:35:33;;;;;;;15.07;5.10;;;1.50;99.90;;;;;;5012029;28;20025;-54
2024/01/15 05:37:58;;;;;;;11.37;4.53;;;1.50;99.90;;;;;;5011765;28;20092;-50
2024/01/15 05:40:24;;;;;;;12.37;4.93;;;1.60;99.90;;;;;;5011787;28;20018;-50
2024/01/15 05:42:50;;;;;;;12.10;4.40;;;1.50;99.90;;;;;;5011948;28;20026;-51
2024/01/15 05:45:15;;;;;;;9.90;4.43;;;1.60;99.90;;;;;;5012458;28;20359;-53
2024/01/15 05:47:41;;;;;;;13.37;4.17;;;1.60;99.90;;;;;;5015779;28;20092;-53
2024/01/15 05:50:08;;;;;;;8.90;4.03;;;1.60;99.90;;;;;;5015458;28;20040;-50
2024/01/15 05:52:33;;;;;;;12.60;4.70;;;1.70;99.90;;;;;;5015559;28;20120;-53
2024/01/15 05:54:59;;;;;;;8.43;3.93;;;1.60;99.90;;;;;;5015748;28;20117;-54
2024/01/15 05:57:25;;;;;;;8.80;4.23;;;1.60;99.90;;;;;;5014394;28;20041;-52
2024/01/15 05:59:50;;;;;;;15.30;4.87;;;1.60;99.90;;;;;;5015349;28;20483;-53
2024/01/15 06:02:16;;;;;;;11.73;4.10;;;1.60;99.90;;;;;;5015401;28;20033;-49
2024/01/15 06:04:41;;;;;;;10.57;4.60;;;1.60;99.90;;;;;;5015470;28;20100;-48
2024/01/15 06:07:07;;;;;;;12.37;4.73;;;1.70;99.90;;;;;;5015353;28;20069;-53
2024/01/15 06:09:33;;;;;;;9.73;4.13;;;1.60;99.90;;;;;;5015174;28;20073;-52
2024/01/15 06:11:59;;;;;;;12.37;4.10;;;1.60;99.90;;;;;;5015085;28;20033;-50
2024/01/15 06:14:24;;;;;;;9.67;3.90;;;1.60;99.90;;;;;;5015399;28;20410;-52
2024/01/15 06:16:52;;;;;;;9.43;3.67;;;1.70;99.90;;;;;;5015311;28;20030;-52
2024/01/15 06:19:17;;;;;;;8.43;3.70;;;1.60;99.90;;;;;;5015104;28;20547;-53
2024/01/15 06:21:43;;;;;;;7.00;3.17;;;1.70;99.90;;;;;;5015061;28;20388;-54
2024/01/15 06:24:10;;;;;;;9.63;3.53;;;1.70;99.90;;;;;;5015115;28;20464;-55
2024/01/15 06:26:35;;;;;;;8.67;3.67;;;1.70;99.90;;;;;;5015064;28;20022;-50
2024/01/15 06:29:02;;;;;;;10.70;3.47;;;1.70;99.90;;;;;;5015092;28;20034;-54
2024/01/15 06:31:28;;;;;;;7.03;2.97;;;1.70;99.90;;;;;;5014864;28;20041;-54
2024/01/15 06:33:55;;;;;;;8.17;3.07;;;1.70;99.90;;;;;;5014851;28;20033;-50
2024/01/15 06:36:20;;;;;;;8.10;3.60;;;1.80;99.90;;;;;;5015276;28;20033;-54
2024/01/15 06:38:46;;;;;;;5.73;1.90;;;1.80;99.90;;;;;;5014632;28;20048;-55
2024/01/15 06:41:11;;;;;;;5.37;2.17;;;1.80;99.90;;;;;;5014664;28;20037;-54
2024/01/15 06:43:37;;;;;;;4.37;1.67;;;1.90;99.90;;;;;;5014696;28;20104;-54
2024/01/15 06:46:03;;;;;;;4.40;2.27;;;1.80;99.90;;;;;;5014724;28;20033;-55
2024/01/15 06:48:28;;;;;;;4.93;1.73;;;1.80;99.90;;;;;;5014551;28;20034;-53
2024/01/15 06:50:54;;;;;;;3.63;1.67;;;1.90;99.90;;;;;;5013048;28;20037;-52
2024/01/15 06:53:20;;;;;;;7.03;1.63;;;1.80;99.90;;;;;;5014425;28;20088;-54
2024/01/15 06:55:46;;;;;;;3.77;1.60;;;1.80;99.90;;;;;;5014168;28;20053;-53
2024/01/15 06:58:11;;;;;;;5.87;1.63;;;1.80;99.90;;;;;;5014258;28;20046;-54
2024/01/15 07:00:37;;;;;;;3.37;1.27;;;1.80;99.90;;;;;;5014248;28;20022;-53
2024/01/15 07:03:03;;;;;;;2.53;1.30;;;1.80;99.90;;;;;;5014453;28;20165;-54
2024/01/15 07:05:30;;;;;;;4.10;1.30;;;1.80;99.90;;;;;;5014288;28;20083;-54
2024/01/15 07:07:56;;;;;;;4.73;1.47;;;1.80;99.90;;;;;;5014109;28;20386;-55
2024/01/15 07:10:21;;;;;;;5.33;1.30;;;1.70;99.90;;;;;;5013978;28;20034;-50
2024/01/15 07:12:47;;;;;;;4.13;2.03;;;1.70;99.90;;;;;;5014090;28;20026;-50
2024/01/15 07:15:13;;;;;;;3.87;1.40;;;1.70;99.90;;;;;;5014551;28;20113;-53
2024/01/15 07:17:39;;;;;;;3.57;1.30;;;1.70;99.90;;;;;;5013854;28;20030;-53
2024/01/15 07:20:07;;;;;;;3.20;1.70;;;1.60;99.90;;;;;;5013833;28;20056;-52
2024/01/15 07:22:34;;;;;;;5.22;1.42;;;1.50;99.90;;;;;;5013963;28;20165;-52
2024/01/15 07:24:59;;;;;;;2.47;1.40;;;1.50;99.90;;;;;;5013866;28;20479;-55
2024/01/15 07:27:25;;;;;;;4.63;2.00;;;1.50;99.90;;;;;;5014063;28;20114;-54
2024/01/15 07:29:52;;;;;;;5.10;1.73;;;1.60;99.90;;;;;;5013733;28;20040;-51
2024/01/15 07:32:17;;;;;;;4.77;1.80;;;1.70;99.90;;;;;;5013819;28;20026;-52
2024/01/15 07:34:43;;;;;;;7.40;2.80;;;1.60;99.90;;;;;;5013799;28;20080;-54
2024/01/15 07:37:08;;;;;;;7.87;3.33;;;1.60;99.90;;;;;;5012503;28;20391;-54
2024/01/15 07:39:34;;;;;;;7.33;2.90;;;1.60;99.90;;;;;;5013805;28;20065;-54
2024/01/15 07:42:00;;;;;;;8.93;4.00;;;1.50;99.90;;;;;;5013452;28;20026;-53
2024/01/15 07:44:26;;;;;;;9.03;4.27;;;1.40;99.90;;;;;;5013736;28;20034;-54
2024/01/15 07:46:51;;;;;;;15.60;4.70;;;1.40;99.90;;;;;;5013690;28;20022;-55
2024/01/15 07:49:17;;;;;;;13.80;4.17;;;1.40;99.90;;;;;;5013365;28;20471;-52
2024/01/15 07:51:45;;;;;;;13.20;4.43;;;1.40;99.90;;;;;;5012320;28;20018;-52
2024/01/15 07:54:11;;;;;;;11.23;4.83;;;1.40;99.90;;;;;;5013542;28;20041;-54
2024/01/15 07:57:00;;;;;;;13.47;5.43;;;1.40;99.90;;;;;;5012162;28;20037;-51
2024/01/15 07:59:26;;;;;;;17.60;6.10;;;1.40;99.90;;;;;;5013516;28;20304;-55
2024/01/15 08:01:52;;;;;;;12.43;5.13;;;1.40;99.90;;;;;;5012943;28;20527;-49
2024/01/15 08:04:18;;;;;;;12.40;5.33;;;1.40;99.90;;;;;;5018588;28;20045;-47
2024/01/15 08:06:45;;;;;;;13.87;5.50;;;1.30;99.90;;;;;;5018587;28;20125;-49
2024/01/15 08:09:11;;;;;;;13.50;5.00;;;1.30;99.90;;;;;;5016074;28;20065;-47
2024/01/15 08:11:40;;;;;;;16.73;5.87;;;1.30;99.90;;;;;;5016059;28;20088;-55
2024/01/15 08:14:05;;;;;;;11.48;5.38;;;1.40;99.90;;;;;;5016087;28;20030;-55
2024/01/15 08:16:31;;;;;;;12.87;5.27;;;1.30;99.90;;;;;;5015944;28;20037;-53
2024/01/15 08:18:57;;;;;;;12.33;5.60;;;1.20;99.90;;;;;;5015318;28;20037;-54
2024/01/15 08:21:22;;;;;;;12.07;5.30;;;1.20;99.90;;;;;;5015586;28;20169;-55
2024/01/15 08:23:48;;;;;;;10.43;5.13;;;1.20;99.90;;;;;;5015744;28;20053;-54
2024/01/15 08:26:13;;;;;;;10.93;4.77;;;1.20;99.90;;;;;;5014574;28;20518;-57
2024/01/15 08:28:39;;;;;;;11.93;4.87;;;1.20;99.90;;;;;;5016005;28;20156;-54
2024/01/15 08:31:48;;;;;;;11.07;5.37;;;1.20;99.90;;;;;;5015171;28;20394;-53
2024/01/15 08:34:14;;;;;;;14.25;5.80;;;1.20;99.90;;;;;;5014057;28;20052;-53
2024/01/15 08:36:40;;;;;;;10.23;4.77;;;1.20;99.90;;;;;;5014080;28;20550;-54
2024/01/15 08:39:06;;;;;;;10.13;4.63;;;1.20;99.90;;;;;;5012525;28;20038;-54
2024/01/15 08:41:35;;;;;;;7.10;4.00;;;1.20;99.90;;;;;;5013756;28;20022;-55
2024/01/15 08:44:02;;;;;;;8.90;4.72;;;1.20;99.90;;;;;;5012693;28;20083;-54
2024/01/15 08:46:28;;;;;;;8.43;4.07;;;1.10;99.90;;;;;;5013619;28;20065;-56
2024/01/15 08:48:54;;;;;;;9.20;4.20;;;1.20;99.90;;;;;;5013346;28;20049;-53
2024/01/15 08:51:19;;;;;;;8.93;4.20;;;1.10;99.90;;;;;;5013441;28;20510;-54
2024/01/15 08:53:45;;;;;;;11.03;4.30;;;1.20;99.90;;;;;;5012129;28;20034;-55
2024/01/15 08:56:10;;;;;;;8.10;3.67;;;1.20;99.90;;;;;;5013402;28;20445;-54
2024/01/15 08:58:36;;;;;;;9.20;3.90;;;1.20;99.90;;;;;;5013596;28;20033;-56
2024/01/15 09:01:02;;;;;;;7.83;3.83;;;1.10;99.90;;;;;;5013329;28;20386;-56
2024/01/15 09:03:27;;;;;;;6.43;3.50;;;0.90;99.90;;;;;;5013579;28;20038;-53
2024/01/15 09:05:54;;;;;;;8.43;4.07;;;0.90;99.90;;;;;;5012590;28;20036;-55
2024/01/15 09:08:20;;;;;;;7.03;3.60;;;0.70;99.90;;;;;;5013217;28;20483;-55
2024/01/15 09:10:45;;;;;;;6.40;3.10;;;0.80;99.90;;;;;;5013302;28;20068;-54
2024/01/15 09:13:11;;;;;;;10.23;3.97;;;0.70;99.90;;;;;;5013421;28;20052;-52
2024/01/15 09:15:37;;;;;;;7.73;4.10;;;0.70;99.90;;;;;;5013822;28;20033;-51
2024/01/15 09:18:02;;;;;;;7.63;3.60;;;0.60;99.90;;;;;;5013581;28;20038;-55
2024/01/15 09:20:28;;;;;;;7.33;3.40;;;0.60;99.90;;;;;;5018500;28;20041;-53
2024/01/15 09:22:54;;;;;;;8.37;3.53;;;0.60;99.90;;;;;;5019521;28;20088;-54
2024/01/15 09:25:19;;;;;;;9.67;4.17;;;0.70;99.90;;;;;;5019871;28;20041;-55
2024/01/15 09:27:45;;;;;;;7.60;3.43;;;0.70;99.90;;;;;;5019282;28;20029;-54
2024/01/15 09:30:11;;;;;;;7.13;3.03;;;0.90;99.90;;;;;;5017400;28;20064;-54
2024/01/15 09:32:37;;;;;;;6.87;3.00;;;0.90;99.90;;;;;;5018878;28;20037;-55
2024/01/15 09:35:02;;;;;;;5.13;2.80;;;1.00;99.90;;;;;;5019132;28;20034;-53
2024/01/15 09:37:28;;;;;;;7.53;2.73;;;1.10;99.90;;;;;;5018851;28;20069;-54
2024/01/15 09:39:55;;;;;;;7.13;2.53;;;1.10;99.90;;;;;;5019159;28;20021;-54
2024/01/15 09:42:23;;;;;;;5.47;2.57;;;1.20;99.90;;;;;;5019939;28;20030;-56
2024/01/15 09:44:49;;;;;;;5.57;2.40;;;1.30;99.90;;;;;;5015290;28;20041;-56
2024/01/15 09:47:16;;;;;;;5.43;2.50;;;1.20;99.90;;;;;;5019368;28;20030;-53
2024/01/15 09:49:42;;;;;;;6.90;2.70;;;1.20;99.90;;;;;;5019107;28;20038;-55
2024/01/15 09:52:08;;;;;;;6.80;2.40;;;1.20;99.90;;;;;;5019009;28;20029;-54
2024/01/15 09:54:34;;;;;;;4.20;2.10;;;1.30;99.90;;;;;;5019476;28;20092;-54
2024/01/15 09:57:01;;;;;;;4.43;2.20;;;1.30;99.90;;;;;;5019075;28;20065;-52
2024/01/15 09:59:28;;;;;;;6.13;2.07;;;1.30;99.90;;;;;;5018932;28;20447;-54
2024/01/15 10:01:55;;;;;;;5.00;1.87;;;1.40;99.90;;;;;;5019658;28;20065;-55
2024/01/15 10:04:21;;;;;;;4.00;1.97;;;1.40;99.90;;;;;;5020423;28;20029;-54
2024/01/15 10:06:47;;;;;;;6.47;2.63;;;1.40;99.90;;;;;;5020145;28;20387;-52
2024/01/15 10:09:16;;;;;;;5.30;2.00;;;1.30;99.90;;;;;;5019005;28;20045;-52
2024/01/15 10:11:43;;;;;;;5.60;1.92;;;1.40;99.90;;;;;;5019823;28;20026;-53
2024/01/15 10:14:12;;;;;;;4.57;2.00;;;1.40;99.90;;;;;;5019863;28;20056;-53
2024/01/15 10:16:38;;;;;;;5.20;2.25;;;1.40;99.90;;;;;;5019861;28;20034;-55
2024/01/15 10:19:05;;;;;;;7.13;2.47;;;1.40;99.90;;;;;;5019548;28;20085;-51
2024/01/15 10:21:34;;;;;;;4.40;1.90;;;1.40;99.90;;;;;;5019574;28;20033;-55
2024/01/15 10:24:00;;;;;;;;;;;1.50;99.90;;;;;;5055319;22;20049;-54
2024/01/15 10:26:26;;;;;;;6.07;2.20;;;1.50;99.90;;;;;;5057758;28;19909;-54
2024/01/15 10:28:52;;;;;;;3.90;1.90;;;1.50;99.90;;;;;;5057734;28;20029;-51
2024/01/15 10:31:19;;;;;;;6.27;1.63;;;1.50;99.90;;;;;;5055374;28;20115;-53
2024/01/15 10:33:45;;;;;;;3.43;1.87;;;1.50;99.90;;;;;;5054447;28;20036;-52
2024/01/15 10:36:11;;;;;;;5.17;1.90;;;1.60;99.90;;;;;;5053331;28;20086;-55
2024/01/15 10:38:36;;;;;;;2.97;1.63;;;1.60;99.90;;;;;;5054363;28;20033;-51
2024/01/15 10:41:02;;;;;;;4.77;1.97;;;1.70;99.90;;;;;;5054344;28;20037;-54
2024/01/15 10:43:28;;;;;;;4.50;1.90;;;1.60;99.90;;;;;;5054184;28;20024;-54
2024/01/15 10:45:53;;;;;;;5.57;2.23;;;1.60;99.90;;;;;;5053123;28;20029;-55
2024/01/15 10:48:19;;;;;;;5.07;2.23;;;1.60;99.90;;;;;;5053038;28;20039;-55
2024/01/15 10:50:46;;;;;;;4.77;2.37;;;1.70;99.90;;;;;;5054044;28;20033;-55
2024/01/15 10:53:14;;;;;;;9.63;3.90;;;1.80;99.90;;;;;;5054284;28;20461;-52
2024/01/15 10:55:42;;;;;;;5.97;2.67;;;2.00;99.90;;;;;;5054117;28;20029;-53
2024/01/15 10:58:08;;;;;;;4.47;2.03;;;2.00;99.90;;;;;;5054017;28;20029;-51
2024/01/15 11:00:38;;;;;;;4.27;2.20;;;2.10;99.90;;;;;;5052502;28;20068;-54
2024/01/15 11:03:06;;;;;;;3.70;1.80;;;2.10;99.90;;;;;;5053861;28;20112;-51
2024/01/15 11:05:57;;;;;;;4.83;1.90;;;2.10;99.90;;;;;;5053942;28;20385;-51
2024/01/15 11:08:24;;;;;;;3.70;1.87;;;2.00;99.90;;;;;;5049668;28;20080;-50
2024/01/15 11:10:55;;;;;;;3.43;1.97;;;2.20;99.90;;;;;;5053561;28;20036;-55
2024/01/15 11:13:32;;;;;;;5.00;2.10;;;2.40;99.90;;;;;;5053476;28;20040;-50
2024/01/15 11:16:07;;;;;;;5.27;2.03;;;2.50;99.90;;;;;;5053760;28;20086;-53
2024/01/15 11:18:41;;;;;;;3.60;1.80;;;2.70;99.90;;;;;;5053550;28;20037;-53
2024/01/15 11:21:16;;;;;;;4.20;2.00;;;2.80;99.90;;;;;;5053555;28;20043;-51
2024/01/15 11:23:53;;;;;;;3.83;2.07;;;2.60;99.90;;;;;;5053354;28;20439;-51
2024/01/15 11:26:43;;;;;;;3.73;1.97;;;2.50;99.90;;;;;;5053531;28;20112;-51
2024/01/15 11:29:28;;;;;;;4.57;2.23;;;2.50;99.90;;;;;;5053401;28;20049;-58
2024/01/15 11:32:00;;;;;;;7.33;1.70;;;2.40;99.90;;;;;;5053382;28;20033;-54
2024/01/15 11:34:51;;;;;;;5.30;2.07;;;2.40;99.90;;;;;;5053302;28;20486;-55
2024/01/15 11:37:18;;;;;;;6.67;2.30;;;2.40;99.90;;;;;;5053156;28;20028;-56
2024/01/15 11:39:44;;;;;;;4.83;1.93;;;2.40;99.90;;;;;;5053149;28;20036;-50
2024/01/15 11:42:11;;;;;;;4.77;1.77;;;2.30;99.90;;;;;;5052638;28;20040;-53
2024/01/15 11:44:38;;;;;;;4.77;1.90;;;2.30;99.90;;;;;;5052339;28;20581;-51
2024/01/15 11:47:06;;;;;;;4.90;1.83;;;2.20;99.90;;;;;;5053244;28;20033;-55
2024/01/15 11:50:00;;;;;;;6.20;1.73;;;2.10;99.90;;;;;;5053504;28;20605;-53
2024/01/15 11:52:31;;;;;;;5.27;1.80;;;2.00;99.90;;;;;;5053020;28;20096;-51
2024/01/15 11:55:13;;;;;;;4.37;1.73;;;1.90;99.90;;;;;;5052937;28;20048;-51
2024/01/15 11:57:46;;;;;;;2.43;1.47;;;2.00;99.90;;;;;;5052801;28;20037;-55
2024/01/15 12:00:13;;;;;;;6.97;1.53;;;2.10;99.90;;;;;;5052746;28;20021;-51
2024/01/15 12:02:44;;;;;;;2.47;1.33;;;2.10;99.90;;;;;;5051658;28;20068;-51
2024/01/15 12:05:14;;;;;;;1.77;1.10;;;2.20;99.90;;;;;;5052933;28;20060;-52
2024/01/15 12:07:40;;;;;;;4.80;1.60;;;2.20;99.90;;;;;;5052815;28;20029;-52
2024/01/15 12:10:18;;;;;;;6.83;1.57;;;2.30;99.90;;;;;;5052712;28;20391;-52
2024/01/15 12:12:58;;;;;;;2.37;1.50;;;2.40;99.90;;;;;;5052916;28;20052;-57
2024/01/15 12:15:25;;;;;;;3.90;1.07;;;2.40;99.90;;;;;;5052719;28;20082;-52
2024/01/15 12:17:52;;;;;;;2.53;1.50;;;2.50;99.90;;;;;;5052539;28;20250;-53
2024/01/15 12:20:18;;;;;;;4.13;1.50;;;2.40;99.90;;;;;;5052477;28;20025;-55
2024/01/15 12:22:44;;;;;;;2.17;1.43;;;2.50;99.90;;;;;;5051160;28;20079;-54
2024/01/15 12:25:10;;;;;;;6.60;1.20;;;2.60;99.90;;;;;;5052393;28;20547;-55
2024/01/15 12:27:36;;;;;;;1.67;1.00;;;2.70;99.90;;;;;;5052374;28;20033;-56
2024/01/15 12:30:02;;;;;;;1.73;1.40;;;2.80;99.90;;;;;;5052127;28;20025;-52
2024/01/15 12:32:28;;;;;;;4.23;1.40;;;2.90;99.90;;;;;;5052171;28;20098;-57
2024/01/15 12:34:54;;;;;;;2.40;1.33;;;3.00;99.90;;;;;;5052458;28;20496;-54
2024/01/15 12:37:20;;;;;;;3.37;1.20;;;3.00;99.90;;;;;;5052197;28;20095;-57
2024/01/15 12:39:46;;;;;;;3.33;1.20;;;3.00;99.90;;;;;;5052062;28;20052;-54
2024/01/15 12:42:14;;;;;;;3.70;1.13;;;3.00;99.90;;;;;;5052191;28;20040;-51
2024/01/15 12:44:39;;;;;;;1.80;0.83;;;2.90;99.90;;;;;;5052153;28;20497;-52
2024/01/15 12:47:06;;;;;;;3.67;1.30;;;2.90;99.90;;;;;;5051950;28;20060;-56
2024/01/15 12:49:32;;;;;;;1.93;1.10;;;2.90;99.90;;;;;;5051868;28;20029;-54
2024/01/15 12:51:58;;;;;;;3.87;1.73;;;2.90;99.90;;;;;;5051767;28;20029;-53